Portada
METAR-TAF:

METAR-TAF

Aeroports :

Cherbourg, França

latitud: 49-39N, longitud: 001-28W, altitud: 138 m

Observació

L'informe es va fer fa 21 minuts, a les 10:00 UTC
Vent 6 kt del Nord/Nord-Oest, variant entre Oest/Nord-Oest i Nord
Temperatura 18°C
Humitat 73%
Pressió 1016 hPa
Visibilitat 10 km o més
sense núvols per sota de 1500 mi sense presència de cumulonimbus.

METAR: LFRC 171000Z AUTO 33006KT 290V360 CAVOK 18/13 Q1016 NOSIG

Hora: 12:21 (10:21 UTC)

Pronòstic

L'informe es va fer fa 2 hores i 21 minuts, a les 08:00 UTC
Pronòstic vàlid del 17 a les 09 UTC al 17 a les 18 UTC
Vent 5 kt del Oest
Visibilitat 10 km o més
sense núvols per sota de 1500 mi sense presència de cumulonimbus.
Evolucionant progressivament
l' 17 a les 10 UTC al 17 a les 12 UTC
Vent 10 kt del Oest

TAF: LFRC 170800Z 1709/1718 28005KT CAVOK BECMG 1710/1712 28010KT

Observacions i pronòstics meteorològics de més de 4000 aeroports (METAR i TAF).

Les estacions disponibles són els punts grocs i vermells al mapa.

Posi el ratolí al punt desitjat per veure el nom de l'estació.

Feu clic per veure les observacions i els pronòstics meteorològics.

Per canviar el mapa: feu clic els botons verds amb una creu de color negre per apropar; al botó verd amb un guió per allunyar la imatge; o en les fletxes verdes per a mapes adjacents.


METAR-TAF: